Time;durP1;ratioP1;P1;durP2;ratioP2;P2;SDS_P1;SDS_P2;PMS_P1;PMS_P2;Temp;Humidity;BMP_temperature;BMP_pressure;BME280_temperature;BME280_humidity;BME280_pressure;Samples;Min_cycle;Max_cycle;Signal;HPM_P1;HPM_P2
2021/05/22 00:00:39;;;;;;;2.78;0.90;;;;;;;10.34;64.79;98904.19;5083033;28;20049;-54
2021/05/22 00:03:06;;;;;;;4.28;1.02;;;;;;;10.35;64.87;98900.22;5092265;28;20052;-54
2021/05/22 00:05:33;;;;;;;3.63;1.05;;;;;;;10.32;65.32;98898.16;5093356;28;20060;-54
2021/05/22 00:08:00;;;;;;;3.55;1.05;;;;;;;10.29;65.35;98888.56;5092660;28;20051;-55
2021/05/22 00:10:28;;;;;;;3.50;1.30;;;;;;;10.29;65.15;98884.91;5075259;28;20048;-54
2021/05/22 00:12:55;;;;;;;3.03;1.02;;;;;;;10.25;65.24;98892.38;5087430;28;20509;-56
2021/05/22 00:15:22;;;;;;;3.00;1.35;;;;;;;10.24;65.25;98891.53;5075111;28;20052;-57
2021/05/22 00:17:49;;;;;;;4.75;1.00;;;;;;;10.23;65.35;98900.25;5089907;28;20504;-57
2021/05/22 00:20:19;;;;;;;3.40;2.05;;;;;;;10.21;65.46;98914.50;5088489;28;20615;-54
2021/05/22 00:22:46;;;;;;;5.25;1.30;;;;;;;10.16;65.49;98893.31;5088931;28;20059;-58
2021/05/22 00:25:14;;;;;;;4.97;1.55;;;;;;;10.19;65.56;98905.69;5088296;28;20047;-57
2021/05/22 00:27:42;;;;;;;5.07;1.35;;;;;;;10.19;65.25;98910.47;5090950;28;20055;-54
2021/05/22 00:30:12;;;;;;;4.53;1.30;;;;;;;10.14;65.40;98903.97;5087784;28;20071;-56
2021/05/22 00:32:40;;;;;;;3.92;1.10;;;;;;;10.14;65.76;98903.97;5084067;28;20055;-52
2021/05/22 00:35:07;;;;;;;3.25;1.20;;;;;;;10.11;65.68;98901.88;5085569;28;20059;-56
2021/05/22 00:37:34;;;;;;;2.63;1.30;;;;;;;10.10;65.80;98918.91;5089001;28;20051;-53
2021/05/22 00:40:02;;;;;;;3.30;1.20;;;;;;;10.08;65.85;98907.31;5089961;28;20055;-57
2021/05/22 00:42:29;;;;;;;4.38;1.50;;;;;;;10.05;65.65;98908.84;5090752;28;20048;-59
2021/05/22 00:45:09;;;;;;;5.90;2.05;;;;;;;10.04;65.47;98914.75;5093442;28;20056;-55
2021/05/22 00:47:38;;;;;;;3.78;1.10;;;;;;;10.05;65.49;98910.81;5074768;28;20058;-54
2021/05/22 00:50:08;;;;;;;4.28;1.10;;;;;;;10.02;65.44;98911.53;5083939;28;20052;-52
2021/05/22 00:52:35;;;;;;;3.55;1.20;;;;;;;10.03;65.77;98899.22;5090768;28;20052;-57
2021/05/22 00:55:02;;;;;;;4.30;1.20;;;;;;;10.02;65.70;98900.41;5092327;28;20048;-55
2021/05/22 00:57:29;;;;;;;4.38;1.00;;;;;;;9.97;66.12;98890.28;5089881;28;20044;-54
2021/05/22 00:59:56;;;;;;;2.58;1.15;;;;;;;9.93;66.40;98892.16;5090758;28;20060;-54
2021/05/22 01:02:26;;;;;;;2.38;1.10;;;;;;;9.92;66.22;98902.47;5091648;28;20052;-53
2021/05/22 01:04:54;;;;;;;5.40;1.20;;;;;;;9.94;66.38;98888.22;5093079;28;20075;-57
2021/05/22 01:07:21;;;;;;;4.93;1.33;;;;;;;9.90;66.57;98888.09;5092645;28;20066;-58
2021/05/22 01:09:51;;;;;;;2.42;1.20;;;;;;;9.88;66.06;98889.63;5083951;28;20083;-59
2021/05/22 01:12:21;;;;;;;3.67;1.10;;;;;;;9.88;66.82;98881.28;5084076;28;20048;-58
2021/05/22 01:14:54;;;;;;;4.85;1.30;;;;;;;9.84;66.79;98881.16;5097210;28;20374;-59
2021/05/22 01:17:21;;;;;;;3.38;1.23;;;;;;;9.81;67.10;98878.28;5090236;28;20051;-59
2021/05/22 01:20:03;;;;;;;5.68;1.55;;;;;;;9.81;66.87;98884.66;5090703;28;20052;-59
2021/05/22 01:22:37;;;;;;;3.97;1.08;;;;;;;9.80;66.83;98882.19;5094570;28;20052;-59
2021/05/22 01:25:07;;;;;;;5.10;1.40;;;;;;;9.77;66.92;98883.72;5093768;28;20048;-59
2021/05/22 01:27:35;;;;;;;;;;;;;;;9.76;66.92;98876.53;5089162;28;20056;-59
2021/05/22 01:30:05;;;;;;;3.60;1.33;;;;;;;9.71;66.99;98883.13;5092771;28;20388;-53
2021/05/22 01:32:32;;;;;;;4.97;1.50;;;;;;;9.72;66.80;98879.22;5096666;28;20043;-57
2021/05/22 01:35:00;;;;;;;4.15;1.33;;;;;;;9.71;67.13;98873.97;5089511;28;20048;-59
2021/05/22 01:37:27;;;;;;;3.42;1.30;;;;;;;9.73;67.14;98872.47;5090894;28;20058;-59
2021/05/22 01:39:54;;;;;;;3.42;1.10;;;;;;;9.71;66.85;98872.00;5093059;28;20052;-59
2021/05/22 01:42:21;;;;;;;5.63;1.30;;;;;;;9.73;67.45;98885.56;5094726;28;20052;-54
2021/05/22 01:44:51;;;;;;;2.60;1.30;;;;;;;9.74;66.90;98868.56;5095042;28;20052;-59
2021/05/22 01:47:20;;;;;;;4.03;1.30;;;;;;;9.71;67.00;98877.56;5083240;28;20056;-59
2021/05/22 01:49:48;;;;;;;6.85;1.10;;;;;;;9.72;66.72;98870.03;5096112;28;20060;-57
2021/05/22 01:52:18;;;;;;;6.75;1.30;;;;;;;9.71;66.98;98885.91;5094782;28;20477;-58
2021/05/22 01:54:46;;;;;;;;;;;;;;;9.68;67.78;98874.66;5096509;28;20048;-58
2021/05/22 01:57:13;;;;;;;6.03;1.35;;;;;;;9.60;67.87;98862.53;5091489;28;20288;-58
2021/05/22 01:59:40;;;;;;;6.30;1.77;;;;;;;9.63;67.48;98864.59;5096104;28;20056;-57
2021/05/22 02:02:08;;;;;;;2.85;1.10;;;;;;;9.62;67.60;98856.63;5093730;28;20477;-57
2021/05/22 02:04:40;;;;;;;5.30;1.40;;;;;;;9.64;67.22;98857.06;5089533;28;20397;-59
2021/05/22 02:07:08;;;;;;;3.35;0.80;;;;;;;9.62;67.40;98860.22;5090064;28;20059;-58
2021/05/22 02:09:35;;;;;;;4.65;1.10;;;;;;;9.60;67.64;98856.97;5088486;28;20048;-59
2021/05/22 02:12:06;;;;;;;5.75;1.95;;;;;;;9.60;67.60;98872.84;5093936;28;20048;-59
2021/05/22 02:14:35;;;;;;;4.80;1.48;;;;;;;9.59;66.98;98866.44;5096031;28;20052;-59
2021/05/22 02:17:06;;;;;;;5.97;1.40;;;;;;;9.63;67.10;98877.69;5091133;28;20503;-57
2021/05/22 02:19:37;;;;;;;5.55;1.58;;;;;;;9.61;66.89;98869.69;5089477;28;20513;-58
2021/05/22 02:22:08;;;;;;;5.05;1.23;;;;;;;9.66;66.96;98855.56;5090446;28;20052;-52
2021/05/22 02:24:36;;;;;;;5.18;1.30;;;;;;;9.64;66.78;98871.78;5090294;28;20477;-58
2021/05/22 02:27:05;;;;;;;6.38;1.67;;;;;;;9.70;66.59;98862.06;5092044;28;20056;-58
2021/05/22 02:29:36;;;;;;;5.05;1.17;;;;;;;9.75;66.89;98852.66;5091938;28;20543;-55
2021/05/22 02:32:04;;;;;;;6.38;1.63;;;;;;;9.71;66.89;98858.09;5092387;28;20055;-55
2021/05/22 02:34:36;;;;;;;3.55;1.15;;;;;;;9.68;67.05;98852.44;5093826;28;20465;-52
2021/05/22 02:37:05;;;;;;;2.33;1.10;;;;;;;9.59;66.56;98860.09;5091952;28;20509;-56
2021/05/22 02:39:34;;;;;;;5.15;1.35;;;;;;;9.60;66.49;98856.16;5079338;28;20071;-58
2021/05/22 02:42:04;;;;;;;9.67;1.67;;;;;;;9.60;66.53;98859.75;5076235;28;20481;-58
2021/05/22 02:44:33;;;;;;;5.90;1.10;;;;;;;9.62;66.44;98860.22;5089547;28;20048;-56
2021/05/22 02:47:01;;;;;;;2.70;0.93;;;;;;;9.58;66.32;98847.34;5091536;28;20056;-58
2021/05/22 02:49:30;;;;;;;3.75;1.52;;;;;;;9.57;66.15;98837.38;5089694;28;20080;-54
2021/05/22 02:52:01;;;;;;;2.55;1.00;;;;;;;9.58;66.56;98842.59;5094512;28;20082;-56
2021/05/22 02:54:30;;;;;;;7.20;1.25;;;;;;;9.58;66.10;98845.38;5093294;28;20058;-53
2021/05/22 02:56:58;;;;;;;4.13;1.10;;;;;;;9.57;66.11;98848.50;5087110;28;20055;-53
2021/05/22 02:59:28;;;;;;;4.47;1.40;;;;;;;9.55;66.84;98848.84;5086660;28;20048;-55
2021/05/22 03:01:55;;;;;;;4.25;1.35;;;;;;;9.57;66.05;98838.19;5088044;28;20054;-56
2021/05/22 03:04:22;;;;;;;4.80;1.10;;;;;;;9.58;65.78;98852.91;5091293;28;20060;-53
2021/05/22 03:06:49;;;;;;;4.97;1.13;;;;;;;9.57;65.98;98843.75;5093230;28;20059;-55
2021/05/22 03:09:19;;;;;;;5.30;1.17;;;;;;;9.58;66.04;98842.59;5084401;28;20053;-56
2021/05/22 03:11:46;;;;;;;;;;;;;;;9.57;65.72;98840.97;5083507;28;20434;-53
2021/05/22 03:14:13;;;;;;;4.75;1.50;;;;;;;9.61;65.65;98847.44;5085767;28;19920;-56
2021/05/22 03:16:39;;;;;;;3.53;0.95;;;;;;;9.67;65.76;98859.97;5074976;28;20051;-57
2021/05/22 03:19:06;;;;;;;2.78;0.95;;;;;;;9.75;64.91;98858.22;5076825;28;20056;-58
2021/05/22 03:21:33;;;;;;;3.47;1.20;;;;;;;9.84;64.85;98839.44;5084636;28;20071;-54
2021/05/22 03:24:00;;;;;;;5.78;1.23;;;;;;;9.88;65.16;98839.56;5091852;28;20052;-53
2021/05/22 03:26:29;;;;;;;3.67;1.00;;;;;;;9.87;64.77;98832.34;5092558;28;20051;-56
2021/05/22 03:28:56;;;;;;;3.90;1.00;;;;;;;9.83;64.84;98837.84;5092889;28;20052;-55
2021/05/22 03:31:23;;;;;;;4.60;1.25;;;;;;;9.81;65.28;98831.81;5092203;28;20497;-54
2021/05/22 03:33:50;;;;;;;3.88;1.00;;;;;;;9.85;64.92;98846.63;5082004;28;20044;-58
2021/05/22 03:36:17;;;;;;;5.93;1.50;;;;;;;9.89;64.91;98847.56;5079039;28;20055;-54
2021/05/22 03:38:45;;;;;;;6.05;1.10;;;;;;;9.95;65.01;98834.19;5092574;28;20059;-55
2021/05/22 03:41:11;;;;;;;3.35;1.00;;;;;;;9.93;65.09;98836.53;5087094;28;20497;-56
2021/05/22 03:43:39;;;;;;;3.03;1.00;;;;;;;9.96;65.07;98831.09;5090764;28;20060;-51
2021/05/22 03:46:06;;;;;;;3.85;1.33;;;;;;;9.98;64.71;98827.16;5091080;28;20051;-53
2021/05/22 03:48:33;;;;;;;4.57;1.25;;;;;;;10.03;64.22;98819.34;5087925;28;20060;-53
2021/05/22 03:51:00;;;;;;;4.72;1.23;;;;;;;10.09;64.54;98823.50;5087284;28;20048;-54
2021/05/22 03:53:27;;;;;;;5.97;1.38;;;;;;;10.08;63.92;98815.50;5092408;28;20060;-52
2021/05/22 03:55:54;;;;;;;3.33;1.00;;;;;;;10.09;64.67;98820.72;5093994;28;20044;-55
2021/05/22 03:58:21;;;;;;;5.78;1.20;;;;;;;10.05;64.81;98814.25;5091967;28;20048;-52
2021/05/22 04:00:49;;;;;;;6.43;1.63;;;;;;;10.10;64.56;98830.72;5093661;28;20055;-52
2021/05/22 04:03:16;;;;;;;5.70;1.33;;;;;;;10.10;64.63;98829.88;5092822;28;20059;-56
2021/05/22 04:05:42;;;;;;;5.32;1.20;;;;;;;10.10;64.85;98818.75;5093261;28;20051;-54
2021/05/22 04:08:09;;;;;;;5.93;1.48;;;;;;;10.11;64.69;98812.84;5090118;28;20047;-52
2021/05/22 04:10:36;;;;;;;3.97;1.25;;;;;;;10.09;64.52;98820.72;5093455;28;20328;-57
2021/05/22 04:13:03;;;;;;;3.95;1.02;;;;;;;10.09;64.89;98822.72;5091856;28;20408;-56
2021/05/22 04:15:30;;;;;;;11.40;1.73;;;;;;;10.26;64.78;98827.19;5091503;28;20059;-57
2021/05/22 04:17:58;;;;;;;3.83;1.30;;;;;;;10.40;64.10;98827.63;5091373;28;20062;-56
2021/05/22 04:20:25;;;;;;;3.35;1.42;;;;;;;10.62;63.30;98828.22;5091447;28;20052;-55
2021/05/22 04:22:52;;;;;;;5.18;1.42;;;;;;;10.72;62.97;98822.94;5093549;28;20051;-57
2021/05/22 04:25:19;;;;;;;4.25;1.60;;;;;;;10.77;62.97;98831.06;5090260;28;20047;-56
2021/05/22 04:27:46;;;;;;;5.13;1.30;;;;;;;10.81;62.63;98820.00;5093217;28;20052;-56
2021/05/22 04:30:14;;;;;;;4.38;1.42;;;;;;;11.00;62.23;98824.06;5092751;28;20055;-58
2021/05/22 04:32:40;;;;;;;5.28;1.77;;;;;;;11.06;61.50;98834.59;5092594;28;20055;-51
2021/05/22 04:35:09;;;;;;;4.60;1.40;;;;;;;11.17;61.42;98837.66;5093552;28;20056;-56
2021/05/22 04:37:36;;;;;;;4.45;1.15;;;;;;;11.12;61.21;98818.44;5091419;28;20059;-56
2021/05/22 04:40:03;;;;;;;5.45;1.30;;;;;;;11.24;61.31;98828.69;5091933;28;20044;-56
2021/05/22 04:42:30;;;;;;;4.20;1.63;;;;;;;11.33;60.80;98837.69;5091819;28;20059;-57
2021/05/22 04:44:57;;;;;;;1.88;0.90;;;;;;;11.45;60.05;98832.00;5089420;28;20062;-55
2021/05/22 04:47:24;;;;;;;3.45;0.90;;;;;;;11.32;59.77;98806.22;5092964;28;20408;-52
2021/05/22 04:49:51;;;;;;;3.75;1.17;;;;;;;11.21;60.58;98844.13;5084778;28;20059;-52
2021/05/22 04:52:22;;;;;;;5.07;1.27;;;;;;;11.32;60.60;98814.56;5090555;28;20056;-52
2021/05/22 04:54:49;;;;;;;6.18;1.30;;;;;;;11.25;60.71;98828.31;5092670;28;20067;-52
2021/05/22 04:57:16;;;;;;;3.50;1.00;;;;;;;11.34;60.20;98825.38;5091084;28;20044;-56
2021/05/22 04:59:43;;;;;;;4.20;1.38;;;;;;;11.36;59.98;98836.97;5092635;28;20056;-56
2021/05/22 05:02:10;;;;;;;6.50;1.63;;;;;;;11.31;61.31;98815.72;5092389;28;20059;-57
2021/05/22 05:04:37;;;;;;;3.92;1.30;;;;;;;11.36;61.97;98828.59;5088413;28;20526;-55
2021/05/22 05:07:04;;;;;;;5.18;1.48;;;;;;;11.30;61.64;98828.06;5072283;28;20482;-54
2021/05/22 05:09:34;;;;;;;6.03;1.20;;;;;;;11.27;62.33;98831.56;5081788;28;21353;-53
2021/05/22 05:12:01;;;;;;;3.88;1.35;;;;;;;11.22;62.58;98822.66;5091392;28;20052;-54
2021/05/22 05:14:28;;;;;;;5.97;1.90;;;;;;;11.23;62.81;98824.28;5093119;28;20477;-54
2021/05/22 05:16:55;;;;;;;6.05;1.92;;;;;;;11.29;62.56;98856.28;5090589;28;20051;-55
2021/05/22 05:19:24;;;;;;;4.93;1.83;;;;;;;11.16;66.36;98842.44;5089967;28;20044;-57
2021/05/22 05:21:51;;;;;;;5.32;1.27;;;;;;;11.15;67.19;98835.25;5091621;28;20408;-55
2021/05/22 05:24:22;;;;;;;9.23;1.60;;;;;;;11.20;66.37;98848.09;5088512;28;20052;-51
2021/05/22 05:26:50;;;;;;;4.28;1.05;;;;;;;11.06;65.34;98839.38;5087144;28;20070;-55
2021/05/22 05:29:17;;;;;;;4.68;1.33;;;;;;;11.05;65.28;98840.53;5089671;28;20051;-52
2021/05/22 05:31:44;;;;;;;3.53;1.60;;;;;;;11.17;65.22;98840.44;5085719;28;20790;-57
2021/05/22 05:34:13;;;;;;;6.05;1.40;;;;;;;11.16;64.32;98850.78;5085352;28;20059;-52
2021/05/22 05:36:40;;;;;;;4.05;1.42;;;;;;;11.22;63.80;98845.78;5059452;28;20048;-55
2021/05/22 05:39:10;;;;;;;3.38;1.30;;;;;;;11.16;63.43;98858.34;5093578;28;20067;-54
2021/05/22 05:41:36;;;;;;;9.07;1.80;;;;;;;11.41;62.70;98836.69;5082374;28;20417;-57
2021/05/22 05:44:05;;;;;;;7.15;1.50;;;;;;;11.43;62.33;98839.13;5087873;28;20055;-55
2021/05/22 05:46:35;;;;;;;3.53;1.00;;;;;;;11.43;61.30;98834.34;5080011;28;20109;-51
2021/05/22 05:49:01;;;;;;;9.30;1.70;;;;;;;11.50;63.10;98844.88;5082685;28;20052;-56
2021/05/22 05:51:28;;;;;;;5.15;1.40;;;;;;;11.66;62.23;98845.66;5086070;28;20055;-55
2021/05/22 05:53:55;;;;;;;4.93;1.25;;;;;;;11.58;61.91;98858.63;5086975;28;20083;-56
2021/05/22 05:56:22;;;;;;;5.45;1.67;;;;;;;11.71;61.50;98859.31;5088320;28;20505;-56
2021/05/22 05:58:49;;;;;;;5.10;1.40;;;;;;;11.88;61.97;98841.41;5085373;28;20401;-54
2021/05/22 06:01:19;;;;;;;6.80;1.40;;;;;;;11.92;61.10;98838.72;5086844;28;20048;-57
2021/05/22 06:03:48;;;;;;;5.32;2.05;;;;;;;11.96;60.85;98851.56;5088336;28;20059;-55
2021/05/22 06:06:14;;;;;;;6.00;1.20;;;;;;;12.13;59.91;98872.69;5087754;28;20409;-55
2021/05/22 06:08:41;;;;;;;4.22;1.27;;;;;;;12.44;58.46;98834.66;5086074;28;20051;-55
2021/05/22 06:11:13;;;;;;;9.00;2.03;;;;;;;12.77;57.84;98839.72;5085296;28;20411;-54
2021/05/22 06:13:42;;;;;;;5.55;1.40;;;;;;;12.90;56.64;98832.00;5085827;28;20047;-58
2021/05/22 06:16:19;;;;;;;5.50;1.58;;;;;;;12.87;56.93;98827.16;5086568;28;20047;-58
2021/05/22 06:18:46;;;;;;;4.78;1.90;;;;;;;13.05;55.97;98826.66;5085146;28;20051;-56
2021/05/22 06:21:13;;;;;;;5.60;1.17;;;;;;;13.38;54.85;98818.50;5085759;28;20052;-56
2021/05/22 06:23:40;;;;;;;4.22;1.17;;;;;;;13.64;53.99;98830.09;5086426;28;20048;-54
2021/05/22 06:26:07;;;;;;;3.67;1.30;;;;;;;13.68;53.50;98819.78;5085496;28;20504;-56
2021/05/22 06:28:34;;;;;;;6.35;1.70;;;;;;;13.79;53.30;98826.31;5085955;28;20067;-56
2021/05/22 06:31:04;;;;;;;3.97;1.20;;;;;;;13.81;52.45;98835.94;5086422;28;20056;-57
2021/05/22 06:33:31;;;;;;;;;;;;;;;13.88;52.54;98835.28;5089395;28;20052;-56
2021/05/22 06:35:58;;;;;;;7.20;1.48;;;;;;;13.91;52.80;98825.31;5084766;28;19939;-56
2021/05/22 06:38:26;;;;;;;6.47;1.20;;;;;;;13.95;52.74;98826.19;5084834;28;20527;-55
2021/05/22 06:40:53;;;;;;;4.88;1.00;;;;;;;13.86;53.32;98848.00;5086178;28;20401;-58
2021/05/22 06:43:20;;;;;;;5.82;1.30;;;;;;;13.60;54.70;98839.22;5086787;28;20067;-57
2021/05/22 06:45:57;;;;;;;4.40;0.98;;;;;;;13.56;55.43;98857.13;5086053;28;20059;-51
2021/05/22 06:48:25;;;;;;;3.55;1.08;;;;;;;13.22;57.11;98862.50;5084403;28;20409;-53
2021/05/22 06:50:52;;;;;;;5.53;1.20;;;;;;;13.24;56.96;98840.59;5086216;28;20062;-57
2021/05/22 06:53:22;;;;;;;6.22;2.03;;;;;;;13.52;57.58;98843.13;5083872;28;20048;-57
2021/05/22 06:55:49;;;;;;;4.00;1.60;;;;;;;13.64;57.07;98855.28;5089567;28;20059;-56
2021/05/22 06:58:17;;;;;;;4.63;1.20;;;;;;;13.52;58.54;98836.69;5085156;28;20052;-57
2021/05/22 07:00:44;;;;;;;4.65;1.40;;;;;;;13.50;56.50;98858.63;5085112;28;20052;-56
2021/05/22 07:03:11;;;;;;;4.20;1.05;;;;;;;13.54;58.41;98857.53;5086142;28;20052;-54
2021/05/22 07:05:40;;;;;;;6.65;1.73;;;;;;;13.48;59.33;98849.81;5086014;28;20060;-51
2021/05/22 07:08:08;;;;;;;7.95;1.60;;;;;;;13.28;62.64;98843.44;5086142;28;20444;-54
2021/05/22 07:10:38;;;;;;;7.05;1.48;;;;;;;13.04;62.35;98853.00;5085336;28;21320;-53
2021/05/22 07:13:05;;;;;;;5.35;1.30;;;;;;;12.24;67.88;98858.16;5085819;28;20051;-56
2021/05/22 07:15:32;;;;;;;6.18;1.50;;;;;;;11.91;70.31;98870.59;5085255;28;20489;-56
2021/05/22 07:17:59;;;;;;;4.57;1.50;;;;;;;11.36;72.37;98857.28;5084958;28;20049;-56
2021/05/22 07:20:26;;;;;;;5.22;1.40;;;;;;;10.94;74.26;98874.50;5084045;28;20048;-57
2021/05/22 07:22:55;;;;;;;5.82;1.70;;;;;;;10.60;76.91;98898.19;5085137;28;20048;-57
2021/05/22 07:25:22;;;;;;;3.65;1.40;;;;;;;10.64;77.68;98876.03;5084647;28;20047;-56
2021/05/22 07:27:54;;;;;;;4.57;1.25;;;;;;;10.61;77.64;98893.44;5085258;28;20481;-51
2021/05/22 07:30:22;;;;;;;9.65;2.63;;;;;;;10.82;78.71;98877.34;5083727;28;20040;-55
2021/05/22 07:32:49;;;;;;;6.35;1.90;;;;;;;11.11;78.18;98883.69;5084210;28;20055;-56
2021/05/22 07:35:16;;;;;;;4.43;1.60;;;;;;;11.25;76.46;98878.47;5083106;28;20058;-54
2021/05/22 07:37:43;;;;;;;5.70;1.55;;;;;;;11.34;75.08;98890.28;5084275;28;20049;-52
2021/05/22 07:40:12;;;;;;;3.65;1.10;;;;;;;11.18;74.31;98893.03;5084493;28;20130;-57
2021/05/22 07:42:39;;;;;;;6.35;2.22;;;;;;;11.34;77.50;98893.06;5084018;28;20416;-58
2021/05/22 07:45:08;;;;;;;5.10;1.90;;;;;;;11.45;75.94;98881.41;5084818;28;20055;-57
2021/05/22 07:47:35;;;;;;;6.50;1.77;;;;;;;11.46;73.75;98894.16;5083622;28;20051;-53
2021/05/22 07:50:02;;;;;;;3.92;1.58;;;;;;;11.54;73.92;98899.53;5085412;28;20056;-53
2021/05/22 07:52:29;;;;;;;4.80;2.38;;;;;;;11.70;73.88;98893.19;5083570;28;20059;-56
2021/05/22 07:54:56;;;;;;;7.32;1.98;;;;;;;11.64;74.78;98901.00;5084320;28;20066;-58
2021/05/22 07:57:23;;;;;;;5.35;1.80;;;;;;;11.28;76.36;98908.44;5084984;28;20060;-53
2021/05/22 07:59:50;;;;;;;9.02;3.08;;;;;;;11.40;78.46;98921.47;5084478;28;20056;-57
2021/05/22 08:02:18;;;;;;;8.30;2.00;;;;;;;11.41;78.97;98923.09;5085086;28;20052;-55
2021/05/22 08:04:45;;;;;;;6.80;1.98;;;;;;;11.70;79.69;98921.88;5089001;28;20480;-52
2021/05/22 08:07:13;;;;;;;8.10;2.38;;;;;;;11.64;77.89;98931.66;5089626;28;20067;-55
2021/05/22 08:09:42;;;;;;;4.40;1.60;;;;;;;10.93;79.55;98948.06;5085540;28;20056;-58
2021/05/22 08:12:10;;;;;;;5.88;2.15;;;;;;;11.05;81.01;98935.28;5084498;28;20055;-58
2021/05/22 08:14:39;;;;;;;6.25;2.40;;;;;;;11.11;80.03;98939.44;5084351;28;20056;-57
2021/05/22 08:17:06;;;;;;;4.70;1.65;;;;;;;10.95;79.92;98940.19;5084462;28;20447;-55
2021/05/22 08:19:34;;;;;;;6.90;2.85;;;;;;;10.90;81.90;98943.22;5083330;28;20056;-55
2021/05/22 08:22:01;;;;;;;8.15;2.42;;;;;;;10.78;81.62;98943.28;5084257;28;20067;-55
2021/05/22 08:24:28;;;;;;;3.35;1.50;;;;;;;10.86;79.53;98956.25;5083054;28;20056;-58
2021/05/22 08:26:55;;;;;;;3.83;1.60;;;;;;;10.95;79.75;98959.69;5084028;28;20048;-56
2021/05/22 08:29:22;;;;;;;6.13;1.55;;;;;;;10.91;81.26;98975.47;5083979;28;20059;-56
2021/05/22 08:31:49;;;;;;;3.63;2.00;;;;;;;10.58;82.05;98967.31;5082499;28;20051;-57
2021/05/22 08:34:16;;;;;;;10.90;2.80;;;;;;;10.47;84.40;98966.19;5083577;28;20047;-58
2021/05/22 08:36:43;;;;;;;7.97;2.78;;;;;;;10.30;85.87;98956.13;5083120;28;20056;-58
2021/05/22 08:39:10;;;;;;;6.20;2.80;;;;;;;10.40;87.35;98963.22;5082728;28;20052;-55
2021/05/22 08:41:38;;;;;;;8.88;3.05;;;;;;;10.40;87.07;98966.81;5082414;28;20389;-58
2021/05/22 08:44:05;;;;;;;9.52;2.90;;;;;;;10.38;86.23;98960.78;5082493;28;20052;-58
2021/05/22 08:46:32;;;;;;;8.93;2.95;;;;;;;10.73;86.80;98963.00;5083994;28;20055;-59
2021/05/22 08:48:59;;;;;;;7.75;2.85;;;;;;;10.88;86.33;98953.91;5082645;28;20062;-59
2021/05/22 08:51:26;;;;;;;9.25;2.90;;;;;;;10.56;84.71;98956.56;5083300;28;20052;-59
2021/05/22 08:53:54;;;;;;;11.88;2.35;;;;;;;10.45;85.12;98951.81;5084396;28;20044;-60
2021/05/22 08:56:21;;;;;;;7.35;3.67;;;;;;;10.80;86.05;98977.16;5082950;28;20051;-58
2021/05/22 08:58:48;;;;;;;3.70;2.00;;;;;;;10.61;84.56;99038.22;5084470;28;20492;-57
2021/05/22 09:01:15;;;;;;;6.22;1.98;;;;;;;10.63;83.24;98957.94;5084400;28;20452;-57
2021/05/22 09:03:44;;;;;;;6.45;2.30;;;;;;;10.96;84.46;98961.31;5083204;28;20527;-60
2021/05/22 09:06:12;;;;;;;2.83;2.00;;;;;;;10.94;82.59;98965.59;5083672;28;20052;-59
2021/05/22 09:08:38;;;;;;;4.22;1.83;;;;;;;10.95;81.80;98981.16;5089987;28;20055;-60
2021/05/22 09:11:07;;;;;;;2.83;1.42;;;;;;;10.73;80.82;98971.34;5092903;28;20397;-58
2021/05/22 09:13:36;;;;;;;7.55;2.10;;;;;;;10.81;81.18;98962.03;5092122;28;20445;-58
2021/05/22 09:16:05;;;;;;;6.20;2.20;;;;;;;10.95;81.03;98972.81;5091465;28;20048;-53
2021/05/22 09:18:35;;;;;;;14.70;2.03;;;;;;;11.09;81.06;98958.47;5090272;28;20056;-57
2021/05/22 09:21:05;;;;;;;5.20;1.95;;;;;;;11.21;80.83;98954.81;5086708;28;20362;-59
2021/05/22 09:23:35;;;;;;;4.22;1.27;;;;;;;11.29;78.76;98957.44;5089783;28;20373;-57
2021/05/22 09:26:04;;;;;;;2.53;1.15;;;;;;;11.12;77.76;98969.72;5092402;28;20048;-56
2021/05/22 09:28:34;;;;;;;6.03;1.95;;;;;;;11.42;80.23;98966.53;5096047;28;20048;-59
2021/05/22 09:31:03;;;;;;;4.47;2.03;;;;;;;11.36;78.84;98956.84;5091696;28;20122;-57
2021/05/22 09:33:34;;;;;;;5.53;1.55;;;;;;;11.62;78.46;98967.47;5095454;28;20485;-56
2021/05/22 09:36:03;;;;;;;5.15;1.50;;;;;;;11.67;78.64;98958.84;5095502;28;20052;-59
2021/05/22 09:38:34;;;;;;;4.30;1.65;;;;;;;11.81;76.94;98965.97;5095755;28;20044;-52
2021/05/22 09:41:13;;;;;;;5.35;1.70;;;;;;;11.93;77.25;98968.69;5095569;28;20058;-58
2021/05/22 09:43:41;;;;;;;6.53;1.80;;;;;;;11.58;76.58;98974.94;5095691;28;20508;-54
2021/05/22 09:46:10;;;;;;;2.70;1.40;;;;;;;11.58;76.95;98972.16;5095538;28;20780;-58
2021/05/22 09:48:37;;;;;;;6.50;1.75;;;;;;;11.57;76.63;98973.34;5095198;28;20055;-58
2021/05/22 09:51:07;;;;;;;6.63;1.75;;;;;;;11.64;75.70;98987.44;5095744;28;20048;-57
2021/05/22 09:53:35;;;;;;;3.08;1.55;;;;;;;11.57;78.02;98984.50;5095117;28;20656;-58
2021/05/22 09:56:17;;;;;;;3.60;1.88;;;;;;;11.39;76.97;98981.19;5083428;28;20052;-58
2021/05/22 09:58:47;;;;;;;3.38;2.13;;;;;;;11.40;78.14;98987.59;5076130;28;20396;-58
2021/05/22 10:01:18;;;;;;;4.60;1.40;;;;;;;11.25;77.15;99003.91;5076515;28;20122;-58
2021/05/22 10:03:47;;;;;;;5.93;1.45;;;;;;;11.42;78.02;98996.41;5076183;28;20053;-57
2021/05/22 10:06:16;;;;;;;8.05;2.20;;;;;;;11.63;78.37;98998.97;5070735;28;20056;-56
2021/05/22 10:08:44;;;;;;;6.65;1.75;;;;;;;11.51;77.67;98986.72;5075754;28;20485;-56
2021/05/22 10:11:11;;;;;;;4.15;1.42;;;;;;;11.54;78.05;99007.50;5082288;28;20056;-56
2021/05/22 10:13:41;;;;;;;4.20;1.60;;;;;;;11.52;78.51;99015.41;5079762;28;20413;-51
2021/05/22 10:16:11;;;;;;;6.45;1.75;;;;;;;11.52;78.50;99013.41;5081947;28;20062;-53
2021/05/22 10:18:38;;;;;;;11.90;1.73;;;;;;;11.38;78.50;99044.53;5091347;28;20424;-56
2021/05/22 10:21:07;;;;;;;17.92;3.30;;;;;;;11.30;79.39;99016.81;5075215;28;20048;-51
2021/05/22 10:23:35;;;;;;;8.57;1.67;;;;;;;11.46;78.88;99017.63;5074974;28;20060;-54
2021/05/22 10:26:02;;;;;;;9.18;1.90;;;;;;;11.41;79.92;99028.25;5074801;28;20063;-56
2021/05/22 10:28:29;;;;;;;4.07;1.25;;;;;;;11.34;78.28;99035.25;5076868;28;20048;-50
2021/05/22 10:30:56;;;;;;;5.78;1.48;;;;;;;11.14;81.69;99023.13;5082501;28;20048;-51
2021/05/22 10:33:25;;;;;;;5.38;1.80;;;;;;;11.52;81.27;99027.38;5075695;28;20044;-54
2021/05/22 10:35:54;;;;;;;7.57;1.85;;;;;;;11.70;80.12;99019.50;5074583;28;20405;-54
2021/05/22 10:38:38;;;;;;;8.07;1.95;;;;;;;11.92;80.23;99032.03;5073716;28;20048;-55
2021/05/22 10:41:08;;;;;;;4.70;2.05;;;;;;;11.84;79.86;99021.03;5074481;28;20060;-53
2021/05/22 10:43:40;;;;;;;4.68;1.55;;;;;;;12.16;78.88;99028.28;5074682;28;20052;-53
2021/05/22 10:46:07;;;;;;;3.13;1.52;;;;;;;11.68;78.81;99062.88;5074403;28;20060;-53
2021/05/22 10:48:53;;;;;;;4.18;1.77;;;;;;;11.65;81.06;99041.25;5079985;28;20064;-58
2021/05/22 10:51:32;;;;;;;6.10;2.85;;;;;;;11.82;83.09;99042.91;5075087;28;20501;-53
2021/05/22 10:54:00;;;;;;;8.38;2.40;;;;;;;11.70;81.87;99044.59;5074053;28;20414;-55
2021/05/22 10:56:27;;;;;;;7.30;2.70;;;;;;;11.53;82.94;99042.94;5074126;28;20063;-55
2021/05/22 10:59:21;;;;;;;7.03;2.30;;;;;;;11.44;85.17;99047.84;5074359;28;20051;-52
2021/05/22 11:01:48;;;;;;;14.30;3.40;;;;;;;11.49;84.23;99044.81;5038702;28;20052;-55
2021/05/22 11:04:37;;;;;;;8.70;3.38;;;;;;;11.54;86.14;99052.09;5073879;28;20490;-54
2021/05/22 11:07:21;;;;;;;7.47;3.00;;;;;;;11.60;85.04;99049.88;5073579;28;20382;-55
2021/05/22 11:09:52;;;;;;;7.32;3.05;;;;;;;11.42;85.29;99060.53;5073752;28;20045;-55
2021/05/22 11:12:45;;;;;;;6.35;2.78;;;;;;;11.26;84.92;99047.34;5074102;28;20048;-54
2021/05/22 11:15:54;;;;;;;8.43;3.28;;;;;;;11.18;86.38;99074.19;5073977;28;20048;-52
2021/05/22 11:18:24;;;;;;;5.93;2.90;;;;;;;11.14;86.40;99066.91;5073300;28;20060;-55
2021/05/22 11:21:19;;;;;;;8.35;2.42;;;;;;;11.07;89.01;99066.69;5073998;28;20075;-57
2021/05/22 11:24:10;;;;;;;7.22;2.95;;;;;;;11.01;88.39;99073.69;5073158;28;20056;-57
2021/05/22 11:27:02;;;;;;;7.78;3.25;;;;;;;10.80;88.89;99057.13;5073795;28;20060;-56
2021/05/22 11:29:58;;;;;;;17.02;3.72;;;;;;;10.92;89.95;99069.03;5073107;28;20045;-54
2021/05/22 11:32:48;;;;;;;9.65;3.90;;;;;;;10.95;89.90;99064.75;5073358;28;20405;-56
2021/05/22 11:35:42;;;;;;;8.32;3.08;;;;;;;10.89;88.85;99077.28;5073602;28;20413;-55
2021/05/22 11:38:32;;;;;;;10.48;3.60;;;;;;;10.97;87.73;99077.16;5073153;28;20127;-54
2021/05/22 11:41:01;;;;;;;8.10;3.60;;;;;;;10.99;86.28;99073.22;5072757;28;20071;-51
2021/05/22 11:43:31;;;;;;;10.27;4.30;;;;;;;10.88;85.41;99079.25;5073322;28;20486;-55
2021/05/22 11:46:00;;;;;;;4.75;2.40;;;;;;;10.91;82.80;99084.13;5073806;28;20056;-56